Latest Coastal Weather Observations for Wadeye (Port Keats)

IDD60701

Issued at 12:31 pm CST Tuesday 30 August 2016 (issued every 10 minutes, with the page automatically refreshed every 10 minutes)

About coastal observations | Map of coastal stations | Coastal observations for NT | Marine services | Other Formats
Station Details ID: 014948 Name: PORT KEATS AIRPORT Lat: -14.25 Lon: 129.53 Height: 28.0 m
Data from the previous 72 hours. | See also: Recent months at Wadeye (Port Keats)
Date/Time
CST
Temp
°C
Wind Pressure Rain since
9am
mm
Weather Cloud Vis
km
Sea
Height
m
Swell
Dir  Spd
kts
Gust
kts
hPa Trend Height
m
Period
s
Dir
30/12:30pm 30.6 NNW 9 14 1014.3 - 0.0 - - - - - - -
30/12:00pm 29.9 N 9 14 1014.7 - 0.0 - - - - - - -
30/11:30am 29.9 N 7 10 1015.3 - 0.0 - - - - - - -
30/11:00am 28.9 NW 8 11 1015.9 - 0.0 - - - - - - -
30/10:30am 28.0 NNW 7 9 1016.3 - 0.0 - - - - - - -
30/10:00am 27.8 WNW 5 7 1016.3 - 0.0 - - - - - - -
30/09:30am 27.8 NNW 4 7 1016.2 - 0.0 - - - - - - -
30/09:00am 26.9 NNW 3 5 1015.9 - 0.0 - - - - - - -
30/08:30am 26.2 CALM 0 0 1015.7 - 0.0 - - - - - - -
30/08:00am 23.4 CALM 0 0 1015.4 - 0.0 - - - - - - -
30/07:30am 21.2 CALM 0 0 1015.1 - 0.0 - - - - - - -
30/07:00am 21.1 CALM 0 0 1014.8 - 0.0 - - - - - - -
30/06:30am 20.6 CALM 0 0 1014.5 - 0.0 - - - - - - -
30/06:00am 20.7 CALM 0 0 1014.0 - 0.0 - - - - - - -
30/05:30am 20.2 CALM 0 0 1013.7 - 0.0 - - - - - - -
30/05:00am 20.2 CALM 0 0 1013.4 - 0.0 - - - - - - -
30/04:30am 21.8 CALM 0 0 1013.0 - 0.0 - - - - - - -
30/04:00am 21.6 CALM 0 0 1012.8 - 0.0 - - - - - - -
30/03:30am 21.4 CALM 0 0 1012.7 - 0.0 - - - - - - -
30/03:00am 20.9 CALM 0 0 1012.7 - 0.0 - - - - - - -
30/02:30am 21.3 CALM 0 0 1013.0 - 0.0 - - - - - - -
30/02:00am 20.9 CALM 0 0 1013.3 - 0.0 - - - - - - -
30/01:30am 21.0 WSW 2 3 1013.4 - 0.0 - - - - - - -
30/01:00am 21.3 CALM 0 0 1013.6 - 0.0 - - - - - - -
30/12:30am 21.8 CALM 0 0 1013.9 - 0.0 - - - - - - -
30/12:00am 21.8 CALM 0 0 1013.8 - 0.0 - - - - - - -
 
Date/Time
CST
Temp
°C
Wind Pressure Rain since
9am
mm
Weather Cloud Vis
km
Sea
Height
m
Swell
Dir  Spd
kts
Gust
kts
hPa Trend Height
m
Period
s
Dir
29/11:30pm 22.8 CALM 0 0 1013.4 - 0.0 - - - - - - -
29/11:00pm 22.9 CALM 0 0 1013.1 - 0.0 - - - - - - -
29/10:30pm 22.8 CALM 0 0 1013.0 - 0.0 - - - - - - -
29/10:00pm 23.4 CALM 0 0 1012.7 - 0.0 - - - - - - -
29/09:30pm 25.0 N 1 4 1012.7 - 0.0 - - - - - - -
29/09:00pm 25.0 NW 1 3 1012.5 - 0.0 - - - - - - -
29/08:30pm 25.6 NNW 3 5 1012.3 - 0.0 - - - - - - -
29/08:00pm 25.2 W 2 3 1012.2 - 0.0 - - - - - - -
29/07:30pm 25.7 WNW 4 5 1011.9 - 0.0 - - - - - - -
29/07:00pm 26.2 W 5 9 1011.8 - 0.0 - - - - - - -
29/06:30pm 27.1 WNW 5 9 1011.4 - 0.0 - - - - - - -
29/06:00pm 28.1 NW 7 11 1011.2 - 0.0 - - - - - - -
29/05:30pm 29.3 NW 7 11 1010.9 - 0.0 - - - - - - -
29/05:00pm 29.1 NW 9 13 1010.7 - 0.0 - - - - - - -
29/04:30pm 29.8 NW 9 12 1010.5 - 0.0 - - - - - - -
29/04:00pm 29.5 NNW 9 14 1010.4 - 0.0 - - - - - - -
29/03:30pm 29.9 NW 9 15 1010.5 - 0.0 - - - - - - -
29/03:00pm 30.5 NNW 11 14 1010.8 - 0.0 - - - - - - -
29/02:30pm 30.1 NNW 11 16 1011.1 - 0.0 - - - - - - -
29/02:00pm 29.5 NNW 10 14 1011.6 - 0.0 - - - - - - -
29/01:30pm 29.6 N 11 15 1012.0 - 0.0 - - - - - - -
29/01:00pm 30.2 N 11 14 1012.4 - 0.0 - - - - - - -
29/12:30pm 29.9 N 10 14 1012.9 - 0.0 - - - - - - -
29/12:00pm 29.4 N 11 14 1013.3 - 0.0 - - - - - - -
29/11:30am 29.8 NNW 10 14 1013.8 - 0.0 - - - - - - -
29/11:00am 30.4 NNW 7 12 1014.1 - 0.0 - - - - - - -
29/10:30am 29.9 NNW 7 13 1014.4 - 0.0 - - - - - - -
29/10:00am 27.9 N 6 8 1014.5 - 0.0 - - - - - - -
29/09:30am 26.6 N 4 6 1014.4 - 0.0 - - - - - - -
29/09:00am 26.1 CALM 0 1 1014.2 - 0.0 - - - - - - -
29/08:30am 24.4 CALM 0 0 1014.0 - 0.0 - - - - - - -
29/08:00am 22.5 CALM 0 0 1013.8 - 0.0 - - - - - - -
29/07:30am 20.6 CALM 0 0 1013.3 - 0.0 - - - - - - -
29/07:00am 19.6 CALM 0 0 1013.0 - 0.0 - - - - - - -
29/06:30am 19.5 CALM 0 0 1012.7 - 0.0 - - - - - - -
29/06:00am 20.3 CALM 0 0 1012.3 - 0.0 - - - - - - -
29/05:30am 20.5 CALM 0 0 1012.0 - 0.0 - - - - - - -
29/05:00am 20.0 CALM 0 0 1011.8 - 0.0 - - - - - - -
29/04:30am 19.8 CALM 0 0 1011.7 - 0.0 - - - - - - -
29/04:00am 21.3 CALM 0 3 1011.6 - 0.0 - - - - - - -
29/03:30am 21.4 CALM 0 2 1011.8 - 0.0 - - - - - - -
29/03:00am 20.3 WSW 2 3 1011.9 - 0.0 - - - - - - -
29/02:30am 20.8 CALM 0 0 1012.2 - 0.0 - - - - - - -
29/02:00am 21.7 CALM 0 0 1012.5 - 0.0 - - - - - - -
29/01:30am 22.5 CALM 0 3 1012.7 - 0.0 - - - - - - -
29/01:00am 22.6 ENE 5 7 1012.7 - 0.0 - - - - - - -
29/12:30am 22.5 ESE 1 3 1012.8 - 0.0 - - - - - - -
29/12:00am 22.4 CALM 0 0 1012.7 - 0.0 - - - - - - -
 
Date/Time
CST
Temp
°C
Wind Pressure Rain since
9am
mm
Weather Cloud Vis
km
Sea
Height
m
Swell
Dir  Spd
kts
Gust
kts
hPa Trend Height
m
Period
s
Dir
28/11:30pm 21.8 CALM 0 0 1012.7 - 0.0 - - - - - - -
28/11:00pm 22.2 CALM 0 0 1012.7 - 0.0 - - - - - - -
28/10:30pm 22.1 CALM 0 0 1012.6 - 0.0 - - - - - - -
28/10:00pm 23.0 CALM 0 0 1012.5 - 0.0 - - - - - - -
28/09:30pm 24.0 CALM 0 0 1012.4 - 0.0 - - - - - - -
28/09:00pm 23.7 CALM 0 0 1012.4 - 0.0 - - - - - - -
28/08:30pm 24.4 W 2 3 1012.2 - 0.0 - - - - - - -
28/08:00pm 24.9 W 2 3 1011.9 - 0.0 - - - - - - -
28/07:30pm 25.4 WNW 3 5 1011.7 - 0.0 - - - - - - -
28/07:00pm 25.8 W 5 8 1011.4 - 0.0 - - - - - - -
28/06:30pm 26.4 WNW 6 11 1011.1 - 0.0 - - - - - - -
28/06:00pm 27.6 WNW 7 12 1010.9 - 0.0 - - - - - - -
28/05:30pm 28.5 NW 10 14 1010.8 - 0.0 - - - - - - -
28/05:00pm 29.1 NW 10 14 1010.8 - 0.0 - - - - - - -
28/04:30pm 29.6 NW 10 13 1010.6 - 0.0 - - - - - - -
28/04:00pm 30.1 NNW 10 13 1010.7 - 0.0 - - - - - - -
28/03:30pm 30.7 NW 10 15 1010.9 - 0.0 - - - - - - -
28/03:00pm 30.5 NNW 11 13 1011.0 - 0.0 - - - - - - -
28/02:30pm 30.7 NNW 11 15 1011.4 - 0.0 - - - - - - -
28/02:00pm 32.0 N 9 14 1011.9 - 0.0 - - - - - - -
28/01:30pm 31.2 NNW 7 12 1012.4 - 0.0 - - - - - - -
28/01:00pm 31.6 N 8 11 1012.8 - 0.0 - - - - - - -
28/12:30pm 31.1 NNW 10 14 1013.2 - 0.0 - - - - - - -
28/12:00pm 31.2 NNE 7 13 1013.8 - 0.0 - - - - - - -
28/11:30am 30.8 N 10 15 1014.3 - 0.0 - - - - - - -
28/11:00am 30.4 NNE 7 11 1014.7 - 0.0 - - - - - - -
28/10:30am 28.9 NE 7 11 1015.1 - 0.0 - - - - - - -
28/10:00am 28.7 E 7 9 1015.2 - 0.0 - - - - - - -
28/09:30am 26.7 E 7 9 1015.4 - 0.0 - - - - - - -
28/09:00am 25.6 E 5 8 1015.5 - 0.0 - - - - - - -
28/08:30am 23.4 E 1 4 1015.4 - 0.0 - - - - - - -
28/08:00am 19.9 ESE 2 4 1015.1 - 0.0 - - - - - - -
28/07:30am 20.1 E 4 6 1014.7 - 0.0 - - - - - - -
28/07:00am 16.2 ESE 3 3 1014.4 - 0.0 - - - - - - -
28/06:30am 16.5 SE 3 5 1014.2 - 0.0 - - - - - - -
28/06:00am 16.0 CALM 0 0 1013.7 - 0.0 - - - - - - -
28/05:30am 16.7 ESE 1 3 1013.5 - 0.0 - - - - - - -
28/05:00am 17.2 ESE 2 4 1013.5 - 0.0 - - - - - - -
28/04:30am 16.8 CALM 0 0 1013.5 - 0.0 - - - - - - -
28/04:00am 16.6 CALM 0 0 1013.7 - 0.0 - - - - - - -
28/03:30am 17.4 CALM 0 0 1013.8 - 0.0 - - - - - - -
28/03:00am 17.9 CALM 0 0 1013.8 - 0.0 - - - - - - -
28/02:30am 19.2 CALM 0 1 1013.8 - 0.0 - - - - - - -
28/02:00am 18.2 N 1 3 1014.0 - 0.0 - - - - - - -
28/01:30am 19.0 CALM 0 0 1014.3 - 0.0 - - - - - - -
28/01:00am 20.6 CALM 0 0 1014.5 - 0.0 - - - - - - -
28/12:30am 21.1 CALM 0 0 1014.5 - 0.0 - - - - - - -
28/12:00am 21.3 CALM 0 0 1014.7 - 0.0 - - - - - - -
 
Date/Time
CST
Temp
°C
Wind Pressure Rain since
9am
mm
Weather Cloud Vis
km
Sea
Height
m
Swell
Dir  Spd
kts
Gust
kts
hPa Trend Height
m
Period
s
Dir
27/11:30pm 21.9 NNE 3 6 1014.8 - 0.0 - - - - - - -
27/11:00pm 22.8 SSW 4 6 1014.5 - 0.0 - - - - - - -
27/10:30pm 22.6 SSW 4 5 1014.4 - 0.0 - - - - - - -
27/10:00pm 22.6 SSW 4 6 1014.4 - 0.0 - - - - - - -
27/09:30pm 22.8 SSW 4 5 1014.2 - 0.0 - - - - - - -
27/09:00pm 22.8 SW 1 4 1013.9 - 0.0 - - - - - - -
27/08:30pm 24.0 CALM 0 0 1013.6 - 0.0 - - - - - - -
27/08:00pm 24.5 SW 3 4 1013.3 - 0.0 - - - - - - -
27/07:30pm 25.7 WSW 4 6 1012.9 - 0.0 - - - - - - -
27/07:00pm 26.8 W 4 5 1012.6 - 0.0 - - - - - - -
27/06:30pm 28.1 W 5 7 1012.2 - 0.0 - - - - - - -
27/06:00pm 29.0 W 6 9 1012.1 - 0.0 - - - - - - -
27/05:30pm 30.0 W 6 10 1012.0 - 0.0 - - - - - - -
27/05:00pm 29.8 W 7 11 1011.8 - 0.0 - - - - - - -
27/04:30pm 30.7 W 7 11 1011.8 - 0.0 - - - - - - -
27/04:00pm 31.1 WSW 7 11 1011.9 - 0.0 - - - - - - -
27/03:30pm 32.4 WNW 5 8 1011.8 - 0.0 - - - - - - -
27/03:00pm 31.9 NW 7 11 1012.1 - 0.0 - - - - - - -
27/02:30pm 33.0 N 6 11 1012.4 - 0.0 - - - - - - -
27/02:00pm 32.7 E 4 11 1012.8 - 0.0 - - - - - - -
27/01:30pm 32.4 ENE 6 12 1013.4 - 0.0 - - - - - - -
27/01:00pm 31.4 NNE 8 14 1013.9 - 0.0 - - - - - - -

Other Formats:

Comma delimited format used in spreadsheet applications
http://www.bom.gov.au/fwo/IDD60701/IDD60701.95111.axf

JavaScript Object Notation format (JSON) in row-major order
http://www.bom.gov.au/fwo/IDD60701/IDD60701.95111.json